Gobler, Missouri
Current Conditions -  °F | °C
As of 9:53 AM on Sunday 21 Dec 2014 (Local Time) from KHKA Reporting Station
Clear Clear  
Wind Chill:   Ceiling: Unl
Heat Index:   Visibility: 8mi
Dew Point:   Wind: 5mph
Humidity: 77%   Direction: 120°ESE
Pressure: 30.23"   Gusts: NA
Location:  36.16°N, 89.96°W
Report Text: KHKA 211553Z AUTO 12004KT 8SM CLR 04/01 A3023 RMK AO2 SLP240 T00440006
Loading
Personal Weather Stations






























Interactive Weather Map New forecast layout! Learn more

10-Day Weather Forecast

Advertisements
Track Severe Weather on mobile